createdAt,value
2023-05-16T00:01:42.096Z,100271.38
2023-05-16T00:04:48.517Z,100268.47
2023-05-16T00:07:54.246Z,100269.22
2023-05-16T00:11:00.402Z,100269.22
2023-05-16T00:14:06.011Z,100266.41
2023-05-16T00:17:12.491Z,100267.69
2023-05-16T00:20:19.216Z,100259.13
2023-05-16T00:23:25.199Z,100258.34
2023-05-16T00:26:30.416Z,100253.22
2023-05-16T00:29:36.290Z,100247.28
2023-05-16T00:32:41.620Z,100242.44
2023-05-16T00:35:46.932Z,100229.28
2023-05-16T00:38:52.266Z,100234.47
2023-05-16T00:41:59.787Z,100223.19
2023-05-16T00:45:06.584Z,100219.72
2023-05-16T00:48:14.506Z,100217.44
2023-05-16T00:51:20.465Z,100212.06
2023-05-16T00:54:29.604Z,100212.66
2023-05-16T00:57:36.220Z,100212.13
2023-05-16T01:00:42.105Z,100200.81
2023-05-16T01:03:48.656Z,100201.38
2023-05-16T01:06:55.709Z,100198.63
2023-05-16T01:10:02.223Z,100201.06
2023-05-16T01:13:23.396Z,100201.44
2023-05-16T01:16:38.971Z,100192.84
2023-05-16T01:19:52.012Z,100198.69
2023-05-16T01:23:25.392Z,100192.84
2023-05-16T01:26:32.944Z,100193.72
2023-05-16T01:29:39.486Z,100183.72
2023-05-16T01:32:45.429Z,100182.88
2023-05-16T01:36:14.895Z,100174.50
2023-05-16T01:39:23.048Z,100175.13
2023-05-16T01:42:34.243Z,100170.47
2023-05-16T01:45:47.978Z,100172.38
2023-05-16T01:49:08.064Z,100159.50
2023-05-16T01:52:18.938Z,100156.78
2023-05-16T01:55:35.080Z,100150.00
2023-05-16T01:58:41.958Z,100136.56
2023-05-16T02:01:47.620Z,100136.75
2023-05-16T02:04:53.481Z,100139.69
2023-05-16T02:08:00.601Z,100132.94
2023-05-16T02:11:06.487Z,100132.66
2023-05-16T02:14:12.524Z,100130.00
2023-05-16T02:17:18.718Z,100128.22
2023-05-16T02:20:24.779Z,100129.88
2023-05-16T02:23:30.154Z,100130.72
2023-05-16T02:26:35.944Z,100127.47
2023-05-16T02:29:41.182Z,100121.84
2023-05-16T02:32:46.877Z,100124.91
2023-05-16T02:35:52.498Z,100115.44
2023-05-16T02:38:58.391Z,100109.81
2023-05-16T02:42:05.026Z,100111.16
2023-05-16T02:45:11.564Z,100102.50
2023-05-16T02:48:17.315Z,100103.03
2023-05-16T02:51:26.374Z,100104.41
2023-05-16T02:54:32.262Z,100105.19
2023-05-16T02:57:38.461Z,100103.09
2023-05-16T03:00:44.425Z,100091.75
2023-05-16T03:03:50.451Z,100094.41
2023-05-16T03:06:56.607Z,100097.63
2023-05-16T03:10:02.395Z,100090.88
2023-05-16T03:13:08.395Z,100093.22
2023-05-16T03:16:15.082Z,100093.16
2023-05-16T03:19:20.953Z,100094.25
2023-05-16T03:22:26.613Z,100089.94
2023-05-16T03:25:33.096Z,100092.63
2023-05-16T03:28:39.089Z,100088.34
2023-05-16T03:31:44.785Z,100089.97
2023-05-16T03:34:50.202Z,100083.81
2023-05-16T03:37:56.081Z,100092.63
2023-05-16T03:41:02.560Z,100094.25
2023-05-16T03:44:08.531Z,100093.47
2023-05-16T03:47:14.654Z,100090.34
2023-05-16T03:50:20.497Z,100084.47
2023-05-16T03:53:28.082Z,100075.13
2023-05-16T03:56:33.863Z,100071.16
2023-05-16T03:59:40.167Z,100073.66
2023-05-16T04:02:46.821Z,100077.09
2023-05-16T04:05:53.037Z,100072.81
2023-05-16T04:08:58.647Z,100078.25
2023-05-16T04:12:04.527Z,100084.44
2023-05-16T04:15:10.677Z,100083.88
2023-05-16T04:18:16.028Z,100089.00
2023-05-16T04:21:21.662Z,100099.84
2023-05-16T04:24:29.228Z,100098.63
2023-05-16T04:27:34.705Z,100103.22
2023-05-16T04:30:40.909Z,100084.56
2023-05-16T04:33:47.209Z,100092.09
2023-05-16T04:36:53.012Z,100086.28
2023-05-16T04:39:59.324Z,100078.56
2023-05-16T04:43:05.465Z,100079.06
2023-05-16T04:46:11.108Z,100078.00
2023-05-16T04:49:16.497Z,100084.97
2023-05-16T04:52:21.810Z,100079.03
2023-05-16T04:55:27.765Z,100095.09
2023-05-16T04:58:33.703Z,100092.97
2023-05-16T05:01:39.915Z,100089.97
2023-05-16T05:04:45.841Z,100092.38
2023-05-16T05:07:51.380Z,100092.41
2023-05-16T05:10:57.226Z,100101.56
2023-05-16T05:14:03.021Z,100102.56
2023-05-16T05:17:08.604Z,100103.66
2023-05-16T05:20:14.045Z,100113.34
2023-05-16T05:23:21.030Z,100119.56
2023-05-16T05:26:26.608Z,100114.69
2023-05-16T05:29:32.315Z,100110.66
2023-05-16T05:32:38.370Z,100108.59
2023-05-16T05:35:43.951Z,100099.72
2023-05-16T05:38:49.739Z,100094.69
2023-05-16T05:41:55.229Z,100085.50
2023-05-16T05:45:00.202Z,100076.66
2023-05-16T05:48:06.064Z,100075.63
2023-05-16T05:51:14.428Z,100073.94
2023-05-16T05:54:20.430Z,100070.25
2023-05-16T05:57:25.688Z,100065.13
2023-05-16T06:00:31.582Z,100067.19
2023-05-16T06:03:37.121Z,100057.28
2023-05-16T06:06:42.630Z,100082.34
2023-05-16T06:09:48.012Z,100087.66
2023-05-16T06:12:53.737Z,100083.38
2023-05-16T06:15:59.217Z,100068.94
2023-05-16T06:19:04.926Z,100057.88
2023-05-16T06:22:10.450Z,100058.44
2023-05-16T06:25:16.272Z,100065.59
2023-05-16T06:28:22.171Z,100066.63
2023-05-16T06:31:27.954Z,100055.63
2023-05-16T06:34:33.927Z,100041.97
2023-05-16T06:37:42.573Z,100053.44
2023-05-16T06:40:49.475Z,100060.88
2023-05-16T06:43:55.164Z,100067.78
2023-05-16T06:47:00.990Z,100077.44
2023-05-16T06:50:07.645Z,100088.44
2023-05-16T06:53:13.158Z,100087.88
2023-05-16T06:56:18.830Z,100081.69
2023-05-16T06:59:25.179Z,100086.44
2023-05-16T07:02:32.364Z,100103.00
2023-05-16T07:05:38.355Z,100100.63
2023-05-16T07:08:43.713Z,100084.47
2023-05-16T07:11:49.637Z,100091.09
2023-05-16T07:14:55.193Z,100083.50
2023-05-16T07:18:01.276Z,100074.06
2023-05-16T07:21:07.392Z,100078.13
2023-05-16T07:24:12.936Z,100078.34
2023-05-16T07:27:22.741Z,100086.50
2023-05-16T07:30:29.838Z,100090.81
2023-05-16T07:33:35.324Z,100097.72
2023-05-16T07:36:41.468Z,100110.88
2023-05-16T07:39:47.071Z,100120.31
2023-05-16T07:42:52.660Z,100124.19
2023-05-16T07:45:58.565Z,100136.22
2023-05-16T07:49:05.443Z,100143.19
2023-05-16T07:52:11.219Z,100159.34
2023-05-16T07:55:17.297Z,100163.41
2023-05-16T07:58:22.965Z,100159.38
2023-05-16T08:01:28.323Z,100149.16
2023-05-16T08:04:33.972Z,100148.91
2023-05-16T08:07:39.500Z,100161.00
2023-05-16T08:10:45.772Z,100155.59
2023-05-16T08:13:51.536Z,100157.75
2023-05-16T08:16:58.700Z,100165.31
2023-05-16T08:20:04.675Z,100169.00
2023-05-16T08:23:10.388Z,100173.78
2023-05-16T08:26:18.187Z,100166.31
2023-05-16T08:29:24.500Z,100171.41
2023-05-16T08:32:30.090Z,100171.16
2023-05-16T08:35:35.828Z,100170.59
2023-05-16T08:38:41.412Z,100155.84
2023-05-16T08:41:47.009Z,100158.22
2023-05-16T08:44:52.533Z,100161.78
2023-05-16T08:48:01.128Z,100145.91
2023-05-16T08:51:08.273Z,100156.38
2023-05-16T08:54:15.897Z,100162.56
2023-05-16T08:57:22.192Z,100158.72
2023-05-16T09:00:28.743Z,100140.41
2023-05-16T09:03:36.482Z,100113.56
2023-05-16T09:06:41.990Z,100113.16
2023-05-16T09:09:47.587Z,100105.59
2023-05-16T09:12:53.317Z,100081.44
2023-05-16T09:16:17.255Z,100087.25
2023-05-16T09:19:23.755Z,100082.31
2023-05-16T09:22:29.975Z,100089.53
2023-05-16T09:25:35.700Z,100097.25
2023-05-16T09:28:41.705Z,100098.16
2023-05-16T09:31:47.279Z,100103.59
2023-05-16T09:34:54.832Z,100113.22
2023-05-16T09:38:00.416Z,100092.63
2023-05-16T09:41:06.178Z,100101.22
2023-05-16T09:44:12.616Z,100099.09
2023-05-16T09:47:19.456Z,100115.13
2023-05-16T09:50:25.423Z,100099.22
2023-05-16T09:53:32.820Z,100087.53
2023-05-16T09:56:51.812Z,100072.88
2023-05-16T10:00:01.737Z,100073.81
2023-05-16T10:03:09.006Z,100075.28
2023-05-16T10:06:16.842Z,100076.88
2023-05-16T10:09:23.549Z,100083.13
2023-05-16T10:12:33.910Z,100077.72
2023-05-16T10:15:40.042Z,100078.78
2023-05-16T10:18:45.878Z,100083.94
2023-05-16T10:21:59.616Z,100072.00
2023-05-16T10:25:14.258Z,100080.91
2023-05-16T10:28:20.126Z,100085.50
2023-05-16T10:31:26.079Z,100084.97
2023-05-16T10:34:31.818Z,100083.91
2023-05-16T10:37:38.330Z,100079.19
2023-05-16T10:40:45.600Z,100087.47
2023-05-16T10:44:00.415Z,100087.22
2023-05-16T10:47:06.348Z,100096.81
2023-05-16T10:50:12.027Z,100105.63
2023-05-16T10:53:29.239Z,100108.41
2023-05-16T10:56:35.658Z,100111.16
2023-05-16T10:59:46.828Z,100096.41
2023-05-16T11:02:52.396Z,100104.19
2023-05-16T11:06:01.902Z,100108.13
2023-05-16T11:09:16.274Z,100108.91
2023-05-16T11:12:21.790Z,100106.47
2023-05-16T11:15:31.789Z,100100.41
2023-05-16T11:18:51.911Z,100108.13
2023-05-16T11:22:18.100Z,100106.22
2023-05-16T11:25:39.905Z,100117.91
2023-05-16T11:28:50.721Z,100108.72
2023-05-16T11:31:56.894Z,100099.91
2023-05-16T11:35:04.271Z,100091.03
2023-05-16T11:38:19.301Z,100081.44
2023-05-16T11:41:24.575Z,100084.75
2023-05-16T11:44:30.071Z,100082.50
2023-05-16T11:47:44.743Z,100080.53
2023-05-16T11:50:50.515Z,100067.66
2023-05-16T11:53:55.759Z,100070.19
2023-05-16T11:57:02.427Z,100066.34
2023-05-16T12:00:25.434Z,100063.16
2023-05-16T12:03:34.048Z,100055.28
2023-05-16T12:06:40.806Z,100059.56
2023-05-16T12:09:54.283Z,100058.94
2023-05-16T12:13:16.796Z,100062.63
2023-05-16T12:16:35.970Z,100062.13
2023-05-16T12:19:46.965Z,100055.28
2023-05-16T12:22:52.804Z,100051.75
2023-05-16T12:25:58.526Z,100058.78
2023-05-16T12:29:05.980Z,100050.81
2023-05-16T12:32:17.649Z,100055.63
2023-05-16T12:35:23.522Z,100051.00
2023-05-16T12:38:29.539Z,100041.69
2023-05-16T12:41:42.620Z,100042.16
2023-05-16T12:44:48.249Z,100029.28
2023-05-16T12:47:54.011Z,100034.47
2023-05-16T12:51:14.240Z,100037.59
2023-05-16T12:54:21.207Z,100040.78
2023-05-16T12:57:27.123Z,100043.78
2023-05-16T13:00:32.749Z,100047.78
2023-05-16T13:03:38.495Z,100053.28
2023-05-16T13:06:56.540Z,100049.88
2023-05-16T13:10:04.860Z,100049.38
2023-05-16T13:13:10.268Z,100056.16
2023-05-16T13:16:16.801Z,100047.44
2023-05-16T13:19:24.595Z,100060.03
2023-05-16T13:22:30.215Z,100045.78
2023-05-16T13:25:37.509Z,100053.25
2023-05-16T13:28:43.113Z,100053.94
2023-05-16T13:31:49.025Z,100064.44
2023-05-16T13:34:54.895Z,100066.34
2023-05-16T13:38:01.048Z,100059.34
2023-05-16T13:41:06.883Z,100057.94
2023-05-16T13:44:13.367Z,100057.56
2023-05-16T13:47:19.017Z,100062.84
2023-05-16T13:50:24.401Z,100057.94
2023-05-16T13:53:29.906Z,100062.53
2023-05-16T13:56:35.348Z,100046.53
2023-05-16T14:02:49.915Z,100055.84
2023-05-16T14:05:55.966Z,100054.13
2023-05-16T14:09:02.129Z,100051.72
2023-05-16T14:12:08.121Z,100050.34
2023-05-16T14:15:13.722Z,100052.63
2023-05-16T14:18:19.205Z,100055.41
2023-05-16T14:21:25.254Z,100044.81
2023-05-16T14:24:31.289Z,100050.31
2023-05-16T14:27:36.868Z,100058.53
2023-05-16T14:30:42.685Z,100052.34
2023-05-16T14:33:48.558Z,100054.44
2023-05-16T14:36:54.116Z,100051.75
2023-05-16T14:40:01.216Z,100060.13
2023-05-16T14:43:10.098Z,100050.44
2023-05-16T14:46:15.725Z,100058.63
2023-05-16T14:49:21.592Z,100051.75
2023-05-16T14:52:27.237Z,100049.53
2023-05-16T14:55:33.444Z,100059.34
2023-05-16T14:58:38.725Z,100067.94
2023-05-16T15:01:44.327Z,100049.72
2023-05-16T15:04:50.532Z,100058.81
2023-05-16T15:07:56.160Z,100057.91
2023-05-16T15:11:02.158Z,100059.06
2023-05-16T15:14:07.785Z,100058.25
2023-05-16T15:17:13.455Z,100069.31
2023-05-16T15:20:21.111Z,100064.19
2023-05-16T15:23:28.340Z,100062.81
2023-05-16T15:26:33.997Z,100067.53
2023-05-16T15:29:39.978Z,100063.31
2023-05-16T15:32:45.853Z,100072.88
2023-05-16T15:35:52.170Z,100061.69
2023-05-16T15:38:58.203Z,100062.38
2023-05-16T15:42:11.137Z,100076.88
2023-05-16T15:45:17.587Z,100071.34
2023-05-16T15:48:23.484Z,100068.69
2023-05-16T15:51:29.490Z,100070.28
2023-05-16T15:54:36.792Z,100067.41
2023-05-16T15:57:44.153Z,100071.94
2023-05-16T16:00:50.118Z,100089.53
2023-05-16T16:03:56.030Z,100094.00
2023-05-16T16:07:02.063Z,100092.03
2023-05-16T16:10:09.328Z,100091.13
2023-05-16T16:13:15.569Z,100087.53
2023-05-16T16:16:21.036Z,100098.44
2023-05-16T16:19:27.004Z,100095.81
2023-05-16T16:22:32.223Z,100091.63
2023-05-16T16:25:37.664Z,100087.03
2023-05-16T16:28:43.413Z,100092.53
2023-05-16T16:31:48.758Z,100094.91
2023-05-16T16:34:54.872Z,100093.91
2023-05-16T16:38:06.690Z,100096.88
2023-05-16T16:41:14.878Z,100098.38
2023-05-16T16:44:21.197Z,100092.69
2023-05-16T16:47:26.981Z,100100.88
2023-05-16T16:50:34.282Z,100100.66
2023-05-16T16:53:41.562Z,100104.63
2023-05-16T16:56:48.010Z,100098.22
2023-05-16T16:59:53.516Z,100098.59
2023-05-16T17:02:59.212Z,100106.19
2023-05-16T17:06:05.269Z,100106.81
2023-05-16T17:09:14.405Z,100113.06
2023-05-16T17:12:20.767Z,100111.47
2023-05-16T17:15:26.692Z,100114.97
2023-05-16T17:18:34.757Z,100122.56
2023-05-16T17:21:40.975Z,100123.41
2023-05-16T17:24:46.559Z,100127.28
2023-05-16T17:27:52.245Z,100133.22
2023-05-16T17:30:58.016Z,100136.34
2023-05-16T17:34:03.572Z,100134.97
2023-05-16T17:37:10.844Z,100135.91
2023-05-16T17:40:18.142Z,100142.16
2023-05-16T17:43:23.771Z,100144.84
2023-05-16T17:46:29.246Z,100141.88
2023-05-16T17:49:35.638Z,100142.00
2023-05-16T17:52:41.343Z,100151.16
2023-05-16T17:55:47.096Z,100157.34
2023-05-16T17:58:53.721Z,100159.00
2023-05-16T18:01:59.386Z,100161.78
2023-05-16T18:05:05.157Z,100165.25
2023-05-16T18:08:11.166Z,100173.72
2023-05-16T18:11:16.737Z,100182.38
2023-05-16T18:14:22.270Z,100185.06
2023-05-16T18:17:28.074Z,100194.81
2023-05-16T18:20:34.783Z,100198.66
2023-05-16T18:23:40.881Z,100195.66
2023-05-16T18:26:48.660Z,100204.63
2023-05-16T18:29:55.328Z,100196.41
2023-05-16T18:33:01.778Z,100201.56
2023-05-16T18:36:08.572Z,100212.69
2023-05-16T18:39:14.035Z,100219.44
2023-05-16T18:42:19.555Z,100223.22
2023-05-16T18:45:24.945Z,100218.94
2023-05-16T18:48:29.891Z,100222.13
2023-05-16T18:51:35.130Z,100224.13
2023-05-16T18:54:40.507Z,100221.94
2023-05-16T18:57:46.317Z,100216.38
2023-05-16T19:00:52.132Z,100226.06
2023-05-16T19:03:57.990Z,100230.84
2023-05-16T19:07:04.752Z,100238.84
2023-05-16T19:10:12.082Z,100247.22
2023-05-16T19:13:18.252Z,100254.97
2023-05-16T19:16:23.625Z,100265.72
2023-05-16T19:19:30.223Z,100257.69
2023-05-16T19:22:36.387Z,100255.28
2023-05-16T19:25:47.435Z,100256.06
2023-05-16T19:28:52.829Z,100259.03
2023-05-16T19:31:58.281Z,100264.13
2023-05-16T19:35:05.740Z,100270.06
2023-05-16T19:38:11.213Z,100280.22
2023-05-16T19:41:17.210Z,100264.13
2023-05-16T19:44:22.744Z,100267.09
2023-05-16T19:47:28.662Z,100273.53
2023-05-16T19:50:34.697Z,100272.19
2023-05-16T19:53:41.372Z,100274.91
2023-05-16T19:56:47.163Z,100280.53
2023-05-16T19:59:52.791Z,100287.50
2023-05-16T20:02:58.514Z,100291.25
2023-05-16T20:06:05.182Z,100291.00
2023-05-16T20:09:11.549Z,100300.66
2023-05-16T20:12:17.407Z,100297.97
2023-05-16T20:15:23.249Z,100303.34
2023-05-16T20:18:28.960Z,100303.09
2023-05-16T20:21:34.575Z,100314.34
2023-05-16T20:24:40.549Z,100320.50
2023-05-16T20:27:46.000Z,100323.72
2023-05-16T20:30:51.721Z,100331.25
2023-05-16T20:33:57.212Z,100335.25
2023-05-16T20:37:03.022Z,100336.53
2023-05-16T20:40:10.176Z,100332.22
2023-05-16T20:43:16.058Z,100341.59
2023-05-16T20:46:22.138Z,100329.56
2023-05-16T20:49:28.309Z,100326.94
2023-05-16T20:52:34.008Z,100324.00
2023-05-16T20:55:39.904Z,100314.06
2023-05-16T20:58:45.612Z,100314.59
2023-05-16T21:01:51.986Z,100314.28
2023-05-16T21:04:59.314Z,100309.78
2023-05-16T21:08:07.811Z,100316.50
2023-05-16T21:11:13.170Z,100307.66
2023-05-16T21:14:18.648Z,100300.66
2023-05-16T21:17:24.660Z,100303.88
2023-05-16T21:20:30.489Z,100315.69
2023-05-16T21:23:36.306Z,100312.19
2023-05-16T21:26:41.808Z,100312.19
2023-05-16T21:29:47.568Z,100320.53
2023-05-16T21:32:53.276Z,100317.31
2023-05-16T21:36:00.618Z,100315.94
2023-05-16T21:39:06.256Z,100318.63
2023-05-16T21:42:11.509Z,100325.09
2023-05-16T21:45:17.299Z,100326.41
2023-05-16T21:48:23.113Z,100328.84
2023-05-16T21:51:29.160Z,100324.03
2023-05-16T21:54:35.084Z,100325.63
2023-05-16T21:57:40.339Z,100326.97
2023-05-16T22:00:46.245Z,100330.19
2023-05-16T22:03:54.635Z,100331.50
2023-05-16T22:06:59.871Z,100336.63
2023-05-16T22:10:06.131Z,100338.22
2023-05-16T22:13:11.739Z,100342.78
2023-05-16T22:16:16.935Z,100351.91
2023-05-16T22:19:22.769Z,100356.19
2023-05-16T22:22:28.821Z,100358.84
2023-05-16T22:25:34.391Z,100364.50
2023-05-16T22:28:39.753Z,100368.75
2023-05-16T22:31:45.507Z,100391.28
2023-05-16T22:34:51.034Z,100374.03
2023-05-16T22:37:56.555Z,100362.81
2023-05-16T22:41:01.769Z,100374.59
2023-05-16T22:44:07.155Z,100372.47
2023-05-16T22:47:13.184Z,100365.47
2023-05-16T22:50:20.695Z,100366.91
2023-05-16T22:53:27.200Z,100368.16
2023-05-16T22:56:34.209Z,100360.63
2023-05-16T22:59:40.235Z,100354.97
2023-05-16T23:02:47.350Z,100353.91
2023-05-16T23:05:54.608Z,100355.75
2023-05-16T23:09:02.910Z,100349.63
2023-05-16T23:12:10.308Z,100356.09
2023-05-16T23:15:17.127Z,100362.78
2023-05-16T23:18:24.528Z,100356.09
2023-05-16T23:21:32.034Z,100352.59
2023-05-16T23:24:39.346Z,100352.63
2023-05-16T23:27:45.494Z,100362.00
2023-05-16T23:30:52.297Z,100362.25
2023-05-16T23:33:59.293Z,100371.34
2023-05-16T23:37:06.884Z,100376.72
2023-05-16T23:40:13.399Z,100373.78
2023-05-16T23:43:22.123Z,100371.66
2023-05-16T23:46:28.973Z,100370.56
2023-05-16T23:49:37.878Z,100365.75
2023-05-16T23:52:45.860Z,100374.03
2023-05-16T23:55:53.550Z,100376.19
2023-05-16T23:59:01.268Z,100374.03
